Jackson Mountain, Nevada
Current Conditions -  °F | °C
As of 9:57 AM on Sunday 25 Jan 2015 (Local Time) from KWMC Reporting Station
NA  
Wind Chill: 39°   Ceiling: NA
Heat Index: 42°   Visibility: 10mi
Dew Point: 29°   Wind: 5mph
Humidity: 60%   Direction: 10°N
Pressure: 30.46"   Gusts: NA
Location:  41.5215°N, 118.961°W
Report Text: KWMC 251757Z AUTO 01004KT 10SM 06/M02 A3046 RMK AO2 SLP326 T00561017 10056 21072 $
Loading
Personal Weather Stations






























Interactive Weather Map New forecast layout! Learn more

10-Day Weather Forecast

Advertisements
Track Severe Weather on mobile